Time;durP1;ratioP1;P1;durP2;ratioP2;P2;SDS_P1;SDS_P2;PMS_P1;PMS_P2;Temp;Humidity;BMP_temperature;BMP_pressure;BME280_temperature;BME280_humidity;BME280_pressure;Samples;Min_cycle;Max_cycle;Signal;HPM_P1;HPM_P2
2023/12/23 00:01:21;;;;;;;0.80;0.20;;;7.10;47.80;;;;;;5052767;28;20431;-51
2023/12/23 00:03:47;;;;;;;0.80;0.30;;;7.20;47.50;;;;;;5052752;28;20174;-52
2023/12/23 00:06:13;;;;;;;0.80;0.30;;;7.30;47.30;;;;;;5052545;28;20458;-53
2023/12/23 00:08:39;;;;;;;0.80;0.20;;;7.20;47.10;;;;;;5052696;28;20252;-51
2023/12/23 00:11:05;;;;;;;0.80;0.20;;;7.20;47.10;;;;;;5052655;28;20173;-48
2023/12/23 00:13:31;;;;;;;0.80;0.22;;;7.20;47.10;;;;;;5052445;28;20204;-56
2023/12/23 00:15:56;;;;;;;0.80;0.20;;;7.20;46.90;;;;;;5052658;28;20594;-51
2023/12/23 00:18:22;;;;;;;0.80;0.20;;;7.20;46.90;;;;;;5052223;28;20256;-58
2023/12/23 00:20:48;;;;;;;0.80;0.20;;;7.10;47.10;;;;;;5052419;28;20189;-58
2023/12/23 00:23:14;;;;;;;0.80;0.20;;;7.10;46.90;;;;;;5052270;28;20177;-51
2023/12/23 00:25:40;;;;;;;0.80;0.40;;;7.10;47.60;;;;;;5052252;28;20173;-50
2023/12/23 00:28:06;;;;;;;0.80;0.20;;;7.20;47.30;;;;;;5052395;28;20182;-58
2023/12/23 00:30:32;;;;;;;0.80;0.20;;;7.20;47.70;;;;;;5031899;28;20201;-51
2023/12/23 00:32:58;;;;;;;0.80;0.20;;;7.10;47.90;;;;;;5032627;28;20229;-57
2023/12/23 00:35:26;;;;;;;0.80;0.20;;;7.10;48.10;;;;;;5032318;28;20212;-57
2023/12/23 00:37:52;;;;;;;0.80;0.20;;;7.30;48.10;;;;;;5037990;28;20185;-50
2023/12/23 00:40:18;;;;;;;0.80;0.23;;;7.20;48.00;;;;;;5050994;28;20311;-53
2023/12/23 00:42:44;;;;;;;0.80;0.20;;;7.30;48.10;;;;;;5032233;28;20933;-59
2023/12/23 00:45:10;;;;;;;0.80;0.30;;;7.30;48.20;;;;;;5032049;28;20713;-51
2023/12/23 00:47:35;;;;;;;0.80;0.30;;;7.30;48.10;;;;;;5031850;28;20197;-57
2023/12/23 00:50:02;;;;;;;0.80;0.30;;;7.30;48.40;;;;;;5031978;28;20267;-57
2023/12/23 00:52:29;;;;;;;0.90;0.43;;;7.30;48.50;;;;;;5031823;28;20453;-49
2023/12/23 00:54:55;;;;;;;1.20;0.75;;;7.30;48.70;;;;;;5031995;28;20186;-51
2023/12/23 00:57:21;;;;;;;0.80;0.20;;;7.30;48.80;;;;;;5031795;28;20186;-54
2023/12/23 00:59:46;;;;;;;0.80;0.20;;;7.30;48.60;;;;;;5031852;28;20226;-56
2023/12/23 01:02:12;;;;;;;0.80;0.30;;;7.30;48.30;;;;;;5032026;28;20619;-51
2023/12/23 01:04:38;;;;;;;0.80;0.30;;;7.40;48.00;;;;;;5031949;28;20262;-50
2023/12/23 01:07:04;;;;;;;0.80;0.20;;;7.40;47.80;;;;;;5031977;28;20456;-57
2023/12/23 01:09:30;;;;;;;0.80;0.20;;;7.40;47.70;;;;;;5031646;28;20170;-56
2023/12/23 01:11:56;;;;;;;0.80;0.20;;;7.50;47.80;;;;;;5031856;28;20198;-49
2023/12/23 01:14:22;;;;;;;0.80;0.20;;;7.40;47.70;;;;;;5031664;28;20178;-52
2023/12/23 01:16:48;;;;;;;0.80;0.30;;;7.50;48.40;;;;;;5031905;28;20513;-56
2023/12/23 01:19:13;;;;;;;0.80;0.30;;;7.50;47.70;;;;;;5031577;28;20695;-48
2023/12/23 01:21:39;;;;;;;0.80;0.30;;;7.60;47.50;;;;;;5031527;28;20197;-58
2023/12/23 01:24:05;;;;;;;0.80;0.20;;;7.60;47.60;;;;;;5030553;28;20267;-58
2023/12/23 01:26:31;;;;;;;0.80;0.30;;;7.60;47.10;;;;;;5030431;28;20197;-51
2023/12/23 01:29:00;;;;;;;0.80;0.30;;;7.60;47.00;;;;;;5031513;28;20336;-55
2023/12/23 01:31:27;;;;;;;0.80;0.30;;;7.60;47.20;;;;;;5031495;28;20201;-56
2023/12/23 01:33:52;;;;;;;0.80;0.35;;;7.70;47.20;;;;;;5031816;28;20190;-53
2023/12/23 01:36:18;;;;;;;0.80;0.20;;;7.70;46.90;;;;;;5031713;28;20524;-57
2023/12/23 01:38:44;;;;;;;0.90;0.40;;;7.70;46.50;;;;;;5031632;28;20918;-53
2023/12/23 01:41:10;;;;;;;0.80;0.20;;;7.70;45.80;;;;;;5032678;28;20212;-56
2023/12/23 01:43:35;;;;;;;1.20;0.67;;;7.70;45.40;;;;;;5049684;22;20629;-49
2023/12/23 01:46:02;;;;;;;1.40;0.60;;;7.80;45.60;;;;;;5050474;28;20201;-48
2023/12/23 01:48:31;;;;;;;0.90;0.50;;;7.80;45.40;;;;;;5054712;28;20184;-51
2023/12/23 01:50:57;;;;;;;0.80;0.20;;;7.90;45.30;;;;;;5055126;28;20735;-49
2023/12/23 01:53:25;;;;;;;0.80;0.20;;;8.00;45.50;;;;;;5051416;28;20241;-50
2023/12/23 01:55:51;;;;;;;0.80;0.20;;;8.00;45.20;;;;;;5035130;28;20261;-54
2023/12/23 01:58:18;;;;;;;0.80;0.20;;;8.00;45.20;;;;;;5034844;28;20184;-47
2023/12/23 02:00:44;;;;;;;0.90;0.60;;;8.00;44.70;;;;;;5034848;28;20659;-49
2023/12/23 02:03:10;;;;;;;0.80;0.30;;;7.90;44.50;;;;;;5035007;28;20221;-47
2023/12/23 02:05:35;;;;;;;0.80;0.33;;;7.80;43.20;;;;;;5034783;28;20174;-47
2023/12/23 02:08:01;;;;;;;0.80;0.20;;;7.80;43.30;;;;;;5034722;28;20413;-51
2023/12/23 02:10:27;;;;;;;0.80;0.20;;;7.70;42.90;;;;;;5034750;28;20174;-47
2023/12/23 02:13:16;;;;;;;0.80;0.20;;;7.80;42.70;;;;;;5034985;28;20175;-48
2023/12/23 02:15:45;;;;;;;0.80;0.20;;;7.80;43.00;;;;;;5034942;28;20738;-47
2023/12/23 02:18:11;;;;;;;0.80;0.20;;;7.90;41.70;;;;;;5034658;28;20174;-50
2023/12/23 02:20:37;;;;;;;0.80;0.20;;;7.80;41.30;;;;;;5034563;28;20550;-49
2023/12/23 02:23:03;;;;;;;0.80;0.20;;;7.70;41.80;;;;;;5034563;28;20416;-48
2023/12/23 02:25:29;;;;;;;0.80;0.20;;;7.80;41.80;;;;;;5034551;28;20200;-50
2023/12/23 02:27:58;;;;;;;0.80;0.30;;;7.80;42.50;;;;;;5034502;28;20216;-48
2023/12/23 02:30:25;;;;;;;1.05;0.82;;;7.80;42.10;;;;;;5034307;28;20548;-48
2023/12/23 02:32:51;;;;;;;0.90;0.50;;;7.70;43.10;;;;;;5034386;28;20179;-50
2023/12/23 02:35:17;;;;;;;0.80;0.20;;;7.60;43.20;;;;;;5034220;28;20197;-49
2023/12/23 02:37:43;;;;;;;0.90;0.30;;;7.50;42.70;;;;;;5034448;28;20238;-48
2023/12/23 02:40:09;;;;;;;0.80;0.20;;;7.50;42.60;;;;;;5034550;28;20263;-50
2023/12/23 02:42:35;;;;;;;0.80;0.20;;;7.50;42.80;;;;;;5034310;28;20590;-50
2023/12/23 02:45:03;;;;;;;0.80;0.20;;;7.30;43.00;;;;;;5033980;28;20795;-51
2023/12/23 02:47:28;;;;;;;0.80;0.30;;;7.30;43.40;;;;;;5033732;28;20205;-49
2023/12/23 02:49:54;;;;;;;1.40;1.30;;;7.20;43.70;;;;;;5034154;28;20178;-49
2023/12/23 02:52:20;;;;;;;0.80;0.30;;;7.10;44.00;;;;;;5033449;28;20212;-52
2023/12/23 02:54:45;;;;;;;0.90;0.50;;;7.10;44.00;;;;;;5033875;28;20198;-49
2023/12/23 02:57:11;;;;;;;2.03;1.00;;;7.10;43.70;;;;;;5034116;28;20174;-46
2023/12/23 02:59:37;;;;;;;0.80;0.20;;;7.20;43.40;;;;;;5033893;28;20170;-55
2023/12/23 03:02:03;;;;;;;0.80;0.20;;;7.10;43.40;;;;;;5033890;28;20184;-54
2023/12/23 03:04:29;;;;;;;0.80;0.30;;;7.00;43.90;;;;;;5033706;28;20272;-50
2023/12/23 03:06:54;;;;;;;0.90;0.40;;;6.90;44.00;;;;;;5033814;28;20285;-52
2023/12/23 03:09:20;;;;;;;0.80;0.30;;;6.80;44.70;;;;;;5033765;28;20196;-47
2023/12/23 03:11:47;;;;;;;0.80;0.20;;;6.80;44.70;;;;;;5033839;28;20610;-49
2023/12/23 03:14:13;;;;;;;3.38;1.05;;;6.70;44.80;;;;;;5033579;28;20264;-51
2023/12/23 03:16:39;;;;;;;0.80;0.30;;;6.60;45.90;;;;;;5033646;28;20648;-48
2023/12/23 03:19:04;;;;;;;0.80;0.20;;;6.50;45.70;;;;;;5033472;28;20828;-48
2023/12/23 03:21:30;;;;;;;0.90;0.50;;;6.30;45.80;;;;;;5033585;28;20181;-53
2023/12/23 03:23:56;;;;;;;0.80;0.30;;;6.40;45.90;;;;;;5033656;28;20273;-48
2023/12/23 03:26:22;;;;;;;0.90;0.40;;;6.40;45.60;;;;;;5033307;28;20198;-48
2023/12/23 03:28:47;;;;;;;6.30;0.60;;;6.40;45.30;;;;;;5033293;28;20219;-54
2023/12/23 03:31:13;;;;;;;0.80;0.27;;;6.60;44.70;;;;;;5033214;28;20511;-55
2023/12/23 03:33:42;;;;;;;0.80;0.20;;;6.60;44.30;;;;;;5033225;28;20260;-48
2023/12/23 03:36:07;;;;;;;1.00;0.55;;;6.60;43.40;;;;;;5033428;28;20181;-50
2023/12/23 03:38:33;;;;;;;1.30;1.07;;;6.60;43.50;;;;;;5033080;28;20191;-51
2023/12/23 03:40:59;;;;;;;1.37;0.50;;;6.60;43.20;;;;;;5033136;28;20511;-48
2023/12/23 03:43:25;;;;;;;8.83;1.33;;;6.60;43.50;;;;;;5032966;28;20467;-49
2023/12/23 03:45:51;;;;;;;0.80;0.30;;;6.70;43.10;;;;;;5032993;28;20544;-47
2023/12/23 03:48:16;;;;;;;2.83;0.50;;;6.80;42.20;;;;;;5032705;28;20181;-46
2023/12/23 03:50:42;;;;;;;0.80;0.20;;;6.80;42.30;;;;;;5033284;28;20174;-54
2023/12/23 03:53:08;;;;;;;0.80;0.30;;;6.80;42.50;;;;;;5033059;28;20590;-55
2023/12/23 03:55:34;;;;;;;0.80;0.20;;;6.80;41.90;;;;;;5032752;28;20183;-46
2023/12/23 03:58:00;;;;;;;1.75;0.63;;;6.90;41.40;;;;;;5032745;28;20190;-50
2023/12/23 04:00:26;;;;;;;0.80;0.40;;;6.80;41.70;;;;;;5032526;28;20181;-49
2023/12/23 04:02:53;;;;;;;1.00;0.63;;;6.80;41.80;;;;;;5032676;28;20273;-50
2023/12/23 04:05:18;;;;;;;0.80;0.30;;;6.80;42.10;;;;;;5032522;28;20597;-51
2023/12/23 04:07:48;;;;;;;0.90;0.50;;;6.90;42.10;;;;;;5032579;28;20201;-47
2023/12/23 04:10:14;;;;;;;0.88;0.40;;;6.90;41.60;;;;;;5032615;28;20181;-49
2023/12/23 04:12:40;;;;;;;0.80;0.30;;;6.80;41.80;;;;;;5015027;28;20178;-47
2023/12/23 04:15:06;;;;;;;0.80;0.38;;;6.90;41.60;;;;;;5032398;28;20464;-49
2023/12/23 04:17:32;;;;;;;0.90;0.55;;;6.80;41.90;;;;;;5032424;28;20174;-46
2023/12/23 04:19:58;;;;;;;0.80;0.20;;;6.80;41.60;;;;;;5032592;28;20191;-52
2023/12/23 04:22:23;;;;;;;0.80;0.30;;;6.90;41.80;;;;;;5032500;28;20683;-46
2023/12/23 04:24:49;;;;;;;0.90;0.50;;;7.00;42.10;;;;;;5032521;28;20698;-45
2023/12/23 04:27:15;;;;;;;0.80;0.20;;;7.00;41.90;;;;;;5032024;28;20290;-54
2023/12/23 04:29:41;;;;;;;1.00;0.30;;;6.90;42.20;;;;;;5032275;28;20177;-48
2023/12/23 04:32:06;;;;;;;2.60;0.70;;;6.90;42.30;;;;;;5032157;28;20193;-47
2023/12/23 04:34:32;;;;;;;0.80;0.30;;;6.80;42.30;;;;;;5032281;28;20201;-55
2023/12/23 04:36:58;;;;;;;0.80;0.20;;;6.80;42.50;;;;;;5032207;28;20639;-49
2023/12/23 04:39:23;;;;;;;0.80;0.30;;;6.90;42.00;;;;;;5032097;28;20231;-48
2023/12/23 04:41:50;;;;;;;0.80;0.20;;;6.90;42.10;;;;;;5032119;28;20216;-54
2023/12/23 04:44:16;;;;;;;0.80;0.30;;;6.90;41.90;;;;;;5031724;28;20226;-48
2023/12/23 04:46:44;;;;;;;0.80;0.20;;;6.90;41.00;;;;;;5031920;28;20196;-51
2023/12/23 04:49:10;;;;;;;0.80;0.35;;;6.90;41.50;;;;;;5032075;28;20412;-49
2023/12/23 04:51:36;;;;;;;0.80;0.30;;;6.80;41.30;;;;;;5031969;28;20252;-48
2023/12/23 04:54:02;;;;;;;0.80;0.30;;;7.00;40.80;;;;;;5032000;28;20281;-53
2023/12/23 04:56:28;;;;;;;0.80;0.30;;;7.00;40.80;;;;;;5031992;28;20217;-48
2023/12/23 04:58:56;;;;;;;0.80;0.30;;;7.10;40.80;;;;;;5031713;28;20205;-51
2023/12/23 05:01:24;;;;;;;0.80;0.40;;;7.10;40.50;;;;;;5031764;28;20499;-48
2023/12/23 05:03:49;;;;;;;0.80;0.20;;;7.10;40.30;;;;;;5031699;28;20290;-47
2023/12/23 05:06:15;;;;;;;0.80;0.20;;;7.10;40.10;;;;;;5031666;28;20285;-51
2023/12/23 05:08:41;;;;;;;0.80;0.20;;;7.00;40.10;;;;;;5031838;28;20189;-48
2023/12/23 05:11:07;;;;;;;0.80;0.20;;;6.90;40.50;;;;;;5031835;28;20213;-54
2023/12/23 05:13:33;;;;;;;0.80;0.23;;;6.80;42.10;;;;;;5031435;28;20670;-54
2023/12/23 05:15:58;;;;;;;0.80;0.30;;;6.80;41.40;;;;;;5032535;28;20178;-47
2023/12/23 05:18:24;;;;;;;0.80;0.20;;;6.90;41.50;;;;;;5035859;28;20178;-50
2023/12/23 05:20:50;;;;;;;0.80;0.30;;;6.90;41.60;;;;;;5035915;28;20178;-52
2023/12/23 05:23:16;;;;;;;0.90;0.50;;;7.00;41.30;;;;;;5035735;28;20209;-48
2023/12/23 05:25:42;;;;;;;0.80;0.20;;;7.00;41.30;;;;;;5035732;28;20188;-48
2023/12/23 05:28:08;;;;;;;0.80;0.20;;;7.00;41.70;;;;;;5035408;28;20179;-53
2023/12/23 05:30:34;;;;;;;0.83;0.40;;;7.00;42.10;;;;;;5035596;28;20179;-46
2023/12/23 05:33:00;;;;;;;1.35;0.95;;;6.90;41.80;;;;;;5035676;28;20470;-47
2023/12/23 05:35:26;;;;;;;0.80;0.30;;;6.90;42.10;;;;;;5035709;28;20589;-50
2023/12/23 05:37:52;;;;;;;0.80;0.40;;;6.90;41.90;;;;;;5035432;28;20174;-51
2023/12/23 05:40:18;;;;;;;0.80;0.20;;;6.90;42.30;;;;;;5035377;28;20944;-48
2023/12/23 05:42:43;;;;;;;0.80;0.20;;;7.00;42.10;;;;;;5035257;28;20762;-55
2023/12/23 05:45:09;;;;;;;0.80;0.30;;;7.00;42.30;;;;;;5035210;28;20217;-54
2023/12/23 05:47:35;;;;;;;0.90;0.45;;;7.00;42.40;;;;;;5035280;28;20224;-49
2023/12/23 05:50:01;;;;;;;1.13;0.80;;;7.10;42.20;;;;;;5035246;28;20182;-51
2023/12/23 05:52:27;;;;;;;0.80;0.20;;;7.20;42.30;;;;;;5035043;28;20425;-48
2023/12/23 05:54:53;;;;;;;1.10;0.40;;;7.10;42.70;;;;;;5035235;28;20436;-48
2023/12/23 05:57:18;;;;;;;0.80;0.30;;;7.10;42.90;;;;;;5034766;28;20270;-50
2023/12/23 05:59:44;;;;;;;0.80;0.30;;;7.00;43.40;;;;;;5035103;28;20197;-48
2023/12/23 06:02:10;;;;;;;0.80;0.30;;;7.00;43.30;;;;;;5035245;28;20260;-55
2023/12/23 06:04:35;;;;;;;0.80;0.30;;;7.10;43.40;;;;;;5034784;28;20209;-54
2023/12/23 06:07:01;;;;;;;0.80;0.20;;;7.20;43.40;;;;;;5034949;28;20206;-47
2023/12/23 06:09:27;;;;;;;7.13;2.20;;;7.30;43.10;;;;;;5034648;28;20178;-51
2023/12/23 06:11:53;;;;;;;0.80;0.20;;;7.40;42.90;;;;;;5021427;28;20178;-49
2023/12/23 06:14:18;;;;;;;2.70;0.73;;;7.40;42.90;;;;;;5015095;28;20290;-49
2023/12/23 06:16:44;;;;;;;0.80;0.30;;;7.20;43.80;;;;;;5015074;28;20463;-50
2023/12/23 06:19:10;;;;;;;0.80;0.20;;;7.00;44.80;;;;;;5014795;28;20182;-48
2023/12/23 06:21:35;;;;;;;0.80;0.20;;;7.00;45.20;;;;;;5014869;28;20194;-56
2023/12/23 06:24:01;;;;;;;0.80;0.23;;;7.00;45.60;;;;;;5014749;28;20200;-54
2023/12/23 06:26:27;;;;;;;0.80;0.20;;;7.00;45.20;;;;;;5014641;28;20205;-47
2023/12/23 06:28:53;;;;;;;0.80;0.20;;;7.00;45.50;;;;;;5013367;28;20418;-48
2023/12/23 06:31:19;;;;;;;0.80;0.20;;;6.90;45.80;;;;;;5014651;28;20182;-53
2023/12/23 06:33:45;;;;;;;0.80;0.30;;;7.00;45.60;;;;;;5014787;28;20199;-47
2023/12/23 06:36:11;;;;;;;3.33;1.23;;;7.00;45.80;;;;;;5014844;28;20190;-47
2023/12/23 06:38:37;;;;;;;0.80;0.30;;;6.90;46.40;;;;;;5014506;28;20183;-55
2023/12/23 06:41:03;;;;;;;0.80;0.20;;;6.70;46.90;;;;;;5014461;28;20753;-55
2023/12/23 06:43:29;;;;;;;0.90;0.50;;;6.70;47.10;;;;;;5014418;28;20632;-54
2023/12/23 06:45:56;;;;;;;3.45;1.95;;;6.70;47.30;;;;;;5014356;28;20213;-50
2023/12/23 06:48:21;;;;;;;0.80;0.22;;;6.70;46.90;;;;;;5014157;28;20206;-49
2023/12/23 06:50:47;;;;;;;9.63;1.13;;;6.90;46.60;;;;;;5014342;28;20203;-54
2023/12/23 06:53:13;;;;;;;0.80;0.30;;;6.90;46.90;;;;;;5014285;28;20178;-48
2023/12/23 06:55:39;;;;;;;0.80;0.20;;;6.90;46.70;;;;;;5014215;28;20611;-54
2023/12/23 06:58:04;;;;;;;0.80;0.30;;;7.00;46.80;;;;;;5013970;28;20532;-47
2023/12/23 07:00:30;;;;;;;2.20;1.00;;;7.00;46.80;;;;;;5014276;28;20178;-48
2023/12/23 07:02:56;;;;;;;1.47;1.03;;;7.00;46.80;;;;;;5014267;28;20274;-53
2023/12/23 07:05:21;;;;;;;0.80;0.40;;;7.00;46.70;;;;;;5014169;28;20599;-54
2023/12/23 07:07:47;;;;;;;0.80;0.30;;;7.10;46.70;;;;;;5013900;28;20604;-47
2023/12/23 07:10:14;;;;;;;0.80;0.30;;;7.00;46.80;;;;;;5013915;28;20224;-54
2023/12/23 07:12:40;;;;;;;0.80;0.30;;;7.10;46.80;;;;;;5014061;28;20182;-54
2023/12/23 07:15:08;;;;;;;0.90;0.50;;;7.10;47.10;;;;;;5013887;28;20595;-47
2023/12/23 07:17:34;;;;;;;0.80;0.30;;;7.10;46.90;;;;;;5013618;28;20193;-49
2023/12/23 07:20:00;;;;;;;0.90;0.50;;;7.20;46.90;;;;;;5013943;28;20256;-52
2023/12/23 07:22:28;;;;;;;0.80;0.30;;;7.20;46.90;;;;;;5013787;28;20209;-46
2023/12/23 07:24:55;;;;;;;0.90;0.45;;;7.20;47.60;;;;;;5013646;28;20210;-47
2023/12/23 07:27:20;;;;;;;0.80;0.30;;;7.00;48.10;;;;;;5013569;28;20214;-49
2023/12/23 07:29:47;;;;;;;0.80;0.30;;;6.90;48.60;;;;;;5013705;28;20703;-49
2023/12/23 07:32:13;;;;;;;0.80;0.40;;;6.90;48.80;;;;;;5013520;28;20174;-54
2023/12/23 07:34:38;;;;;;;0.83;0.40;;;6.80;48.90;;;;;;5013391;28;20197;-50
2023/12/23 07:37:04;;;;;;;0.88;0.45;;;6.80;48.80;;;;;;5013488;28;20258;-49
2023/12/23 07:39:30;;;;;;;2.50;2.00;;;6.80;49.10;;;;;;5012786;28;20178;-51
2023/12/23 07:41:57;;;;;;;0.80;0.40;;;6.80;48.90;;;;;;5013543;28;20644;-47
2023/12/23 07:44:26;;;;;;;0.80;0.30;;;6.70;49.10;;;;;;5013255;28;20218;-50
2023/12/23 07:46:52;;;;;;;1.20;0.85;;;6.70;49.20;;;;;;5013277;28;20205;-55
2023/12/23 07:49:17;;;;;;;0.90;0.53;;;6.80;49.00;;;;;;5013152;28;20175;-47
2023/12/23 07:51:43;;;;;;;0.80;0.33;;;6.90;48.80;;;;;;5013326;28;20186;-47
2023/12/23 07:54:09;;;;;;;0.80;0.30;;;7.00;48.40;;;;;;5013067;28;20631;-54
2023/12/23 07:56:34;;;;;;;0.80;0.20;;;7.00;48.20;;;;;;5033967;22;20594;-51
2023/12/23 07:59:00;;;;;;;0.80;0.20;;;7.10;48.00;;;;;;5012890;28;20872;-45
2023/12/23 08:01:26;;;;;;;0.80;0.43;;;7.20;47.80;;;;;;5013038;28;20227;-46
2023/12/23 08:03:52;;;;;;;1.00;0.77;;;7.20;47.70;;;;;;5013047;28;20178;-51
2023/12/23 08:06:18;;;;;;;0.80;0.33;;;7.20;47.80;;;;;;5013060;28;20965;-46
2023/12/23 08:08:45;;;;;;;0.80;0.20;;;7.10;47.90;;;;;;5012963;28;20178;-46
2023/12/23 08:11:11;;;;;;;0.80;0.30;;;7.10;47.90;;;;;;5013045;28;20189;-52
2023/12/23 08:13:37;;;;;;;0.90;0.53;;;7.00;47.80;;;;;;5012897;28;20300;-48
2023/12/23 08:16:03;;;;;;;0.90;0.43;;;7.00;47.90;;;;;;5012809;28;20869;-46
2023/12/23 08:18:30;;;;;;;1.25;1.15;;;7.10;47.90;;;;;;5012544;28;20182;-53
2023/12/23 08:20:56;;;;;;;0.90;0.45;;;7.00;48.00;;;;;;5012638;28;20190;-51
2023/12/23 08:23:22;;;;;;;0.90;0.70;;;7.10;48.10;;;;;;5012680;28;20210;-53
2023/12/23 08:25:48;;;;;;;1.10;0.83;;;7.00;47.70;;;;;;5012707;28;20750;-46
2023/12/23 08:28:14;;;;;;;0.80;0.40;;;7.10;47.80;;;;;;5012689;28;20714;-46
2023/12/23 08:30:40;;;;;;;0.80;0.20;;;7.10;47.90;;;;;;5012881;28;20225;-50
2023/12/23 08:33:06;;;;;;;0.80;0.25;;;7.10;47.70;;;;;;5013047;28;20178;-48
2023/12/23 08:35:32;;;;;;;2.77;0.80;;;7.10;47.70;;;;;;5012648;28;20528;-46
2023/12/23 08:37:58;;;;;;;0.80;0.30;;;7.10;47.80;;;;;;5012493;28;20595;-48
2023/12/23 08:40:25;;;;;;;1.00;0.45;;;7.00;47.90;;;;;;5012440;28;20206;-45
2023/12/23 08:42:50;;;;;;;0.80;0.40;;;6.90;48.00;;;;;;5012478;28;20185;-48
2023/12/23 08:45:17;;;;;;;1.07;0.67;;;6.90;48.10;;;;;;5012329;28;20544;-51
2023/12/23 08:47:43;;;;;;;0.80;0.20;;;6.90;48.20;;;;;;5023501;28;20545;-46
2023/12/23 08:50:10;;;;;;;0.90;0.50;;;6.90;47.90;;;;;;5031657;28;20188;-45
2023/12/23 08:52:35;;;;;;;0.80;0.40;;;6.90;47.90;;;;;;5031623;28;20173;-50
2023/12/23 08:55:02;;;;;;;0.80;0.20;;;6.90;47.80;;;;;;5031934;28;20687;-51
2023/12/23 08:57:28;;;;;;;0.80;0.30;;;6.80;48.30;;;;;;5030301;28;20275;-44
2023/12/23 08:59:54;;;;;;;0.80;0.40;;;6.90;47.80;;;;;;5012306;28;20773;-49
2023/12/23 09:02:20;;;;;;;0.80;0.43;;;6.90;47.60;;;;;;5012105;28;20787;-48
2023/12/23 09:04:45;;;;;;;1.20;1.10;;;6.90;47.50;;;;;;5012430;28;20178;-46
2023/12/23 09:07:12;;;;;;;0.80;0.40;;;7.00;47.40;;;;;;5012033;28;20826;-52
2023/12/23 09:09:40;;;;;;;0.95;0.38;;;7.00;47.30;;;;;;5020324;28;20189;-46
2023/12/23 09:12:06;;;;;;;2.03;0.90;;;7.00;47.20;;;;;;5011960;28;20190;-47
2023/12/23 09:14:32;;;;;;;0.80;0.40;;;7.00;47.10;;;;;;5012105;28;20522;-51
2023/12/23 09:16:58;;;;;;;1.00;0.60;;;7.10;47.20;;;;;;5011943;28;20895;-46
2023/12/23 09:19:24;;;;;;;0.80;0.40;;;7.10;47.20;;;;;;5011829;28;20232;-46
2023/12/23 09:21:49;;;;;;;2.93;0.60;;;7.10;47.00;;;;;;5012123;28;20577;-50
2023/12/23 09:24:15;;;;;;;0.80;0.40;;;7.10;47.00;;;;;;5012076;28;20182;-52
2023/12/23 09:26:42;;;;;;;1.20;0.73;;;7.10;46.90;;;;;;5019936;28;20254;-45
2023/12/23 09:29:08;;;;;;;2.83;0.55;;;7.10;46.80;;;;;;5011773;28;20417;-53
2023/12/23 09:31:34;;;;;;;0.90;0.47;;;7.10;46.70;;;;;;5011739;28;20186;-47
2023/12/23 09:34:00;;;;;;;0.90;0.50;;;7.10;46.80;;;;;;5011890;28;20226;-45
2023/12/23 09:36:26;;;;;;;1.88;0.82;;;7.10;46.80;;;;;;5011774;28;20529;-50
2023/12/23 09:38:52;;;;;;;2.40;1.57;;;7.10;46.90;;;;;;5011761;28;20205;-45
2023/12/23 09:41:17;;;;;;;1.10;0.60;;;7.10;46.90;;;;;;5011833;28;20915;-53
2023/12/23 09:43:44;;;;;;;0.80;0.50;;;7.10;46.80;;;;;;5011854;28;20576;-46
2023/12/23 09:46:12;;;;;;;1.23;1.00;;;7.10;46.70;;;;;;5011684;28;20210;-46
2023/12/23 09:48:38;;;;;;;0.90;0.55;;;7.10;46.60;;;;;;4994058;28;20655;-50
2023/12/23 09:51:05;;;;;;;0.80;0.30;;;7.10;46.60;;;;;;5011769;28;20213;-46
2023/12/23 09:53:37;;;;;;;1.08;0.73;;;7.10;46.60;;;;;;5011727;28;20202;-50
2023/12/23 09:56:06;;;;;;;0.90;0.50;;;7.10;46.70;;;;;;5011547;28;20254;-46
2023/12/23 09:58:33;;;;;;;1.00;0.80;;;7.10;46.60;;;;;;5011483;28;20639;-46
2023/12/23 10:01:00;;;;;;;0.90;0.40;;;7.00;46.60;;;;;;5011614;28;20702;-50
2023/12/23 10:03:25;;;;;;;0.90;0.40;;;7.00;46.60;;;;;;5014641;28;20211;-52
2023/12/23 10:05:52;;;;;;;0.80;0.30;;;7.00;46.70;;;;;;5015166;28;20683;-46
2023/12/23 10:08:18;;;;;;;2.65;1.77;;;7.00;46.80;;;;;;5015164;28;20253;-50
2023/12/23 10:10:48;;;;;;;0.80;0.30;;;7.00;46.80;;;;;;5015121;28;20168;-46
2023/12/23 10:13:13;;;;;;;0.90;0.70;;;7.00;46.80;;;;;;5023261;28;20187;-46
2023/12/23 10:15:42;;;;;;;3.90;1.90;;;7.00;46.80;;;;;;5014918;28;20202;-52
2023/12/23 10:18:12;;;;;;;0.80;0.40;;;7.00;46.80;;;;;;5015049;28;20188;-47
2023/12/23 10:20:38;;;;;;;0.80;0.35;;;7.10;46.80;;;;;;5014974;28;20261;-52
2023/12/23 10:23:04;;;;;;;0.80;0.30;;;7.00;46.80;;;;;;5014861;28;20679;-50
2023/12/23 10:25:30;;;;;;;0.90;0.50;;;7.10;46.90;;;;;;5014681;28;20186;-45
2023/12/23 10:28:04;;;;;;;0.88;0.45;;;7.10;46.90;;;;;;5014934;28;20210;-51
2023/12/23 10:30:38;;;;;;;0.90;0.60;;;7.00;46.90;;;;;;5014691;28;20652;-46
2023/12/23 10:33:08;;;;;;;0.90;0.50;;;7.10;46.90;;;;;;5014758;28;20269;-46
2023/12/23 10:36:00;;;;;;;1.00;0.73;;;7.10;46.90;;;;;;5014562;28;20422;-50
2023/12/23 10:38:27;;;;;;;1.33;1.20;;;7.10;47.00;;;;;;5018074;28;20228;-45
2023/12/23 10:41:16;;;;;;;0.90;0.40;;;7.10;47.00;;;;;;5014596;28;20607;-53
2023/12/23 10:43:44;;;;;;;1.20;0.95;;;7.10;46.90;;;;;;5014581;28;20178;-45
2023/12/23 10:46:11;;;;;;;1.42;0.70;;;7.10;47.00;;;;;;5014443;28;20214;-51
2023/12/23 10:48:37;;;;;;;2.33;0.88;;;7.10;46.90;;;;;;5014144;28;20185;-50
2023/12/23 10:51:04;;;;;;;0.93;0.60;;;7.10;47.00;;;;;;5014293;28;20181;-43
2023/12/23 10:53:30;;;;;;;1.10;0.50;;;7.10;46.90;;;;;;5014353;28;20214;-48
2023/12/23 10:55:57;;;;;;;0.80;0.32;;;7.20;46.80;;;;;;5014222;28;20230;-50
2023/12/23 10:58:23;;;;;;;1.75;0.90;;;7.20;46.90;;;;;;5022215;28;20189;-46
2023/12/23 11:00:50;;;;;;;2.08;1.08;;;7.20;47.00;;;;;;5014124;28;20170;-47
2023/12/23 11:03:17;;;;;;;1.00;0.90;;;7.20;47.00;;;;;;5014119;28;20186;-50
2023/12/23 11:05:44;;;;;;;0.90;0.60;;;7.20;46.90;;;;;;5013982;28;20194;-46
2023/12/23 11:08:18;;;;;;;1.10;0.65;;;7.20;46.90;;;;;;5013886;28;20225;-48
2023/12/23 11:10:45;;;;;;;1.00;0.60;;;7.20;46.80;;;;;;5014190;28;20186;-50
2023/12/23 11:13:13;;;;;;;1.35;1.00;;;7.20;46.90;;;;;;5013701;28;20189;-46
2023/12/23 11:15:39;;;;;;;2.55;0.80;;;7.20;46.90;;;;;;5013326;28;20200;-49
2023/12/23 11:18:06;;;;;;;1.95;1.38;;;7.20;46.90;;;;;;5013989;28;20213;-45
2023/12/23 11:20:31;;;;;;;1.05;0.77;;;7.20;46.90;;;;;;5013865;28;20191;-52
2023/12/23 11:23:21;;;;;;;0.90;0.50;;;7.20;46.90;;;;;;5013890;28;20233;-53
2023/12/23 11:25:46;;;;;;;0.98;0.60;;;7.20;46.90;;;;;;5008140;28;20237;-45
2023/12/23 11:28:13;;;;;;;2.30;0.77;;;7.30;47.10;;;;;;5033244;28;20220;-52
2023/12/23 11:30:49;;;;;;;1.05;0.90;;;7.20;47.10;;;;;;5033551;28;20576;-44
2023/12/23 11:33:23;;;;;;;1.90;1.00;;;7.20;47.00;;;;;;5033381;28;20201;-51
2023/12/23 11:35:51;;;;;;;0.80;0.40;;;7.20;46.90;;;;;;5029589;28;20217;-46
2023/12/23 11:38:17;;;;;;;1.10;0.50;;;7.20;47.00;;;;;;5013422;28;20174;-45
2023/12/23 11:40:44;;;;;;;1.00;0.43;;;7.20;47.10;;;;;;4995770;28;20178;-51
2023/12/23 11:43:09;;;;;;;0.90;0.50;;;7.10;47.20;;;;;;5013470;28;20175;-47
2023/12/23 11:45:38;;;;;;;1.33;1.07;;;7.10;47.20;;;;;;4995737;28;20224;-45
2023/12/23 11:48:09;;;;;;;0.80;0.30;;;7.10;47.30;;;;;;5013422;28;20260;-52
2023/12/23 11:50:35;;;;;;;0.80;0.40;;;7.10;47.50;;;;;;5013235;28;20187;-47
2023/12/23 11:53:01;;;;;;;1.30;0.87;;;7.00;47.40;;;;;;5013164;28;20175;-47
2023/12/23 11:55:28;;;;;;;1.73;1.23;;;7.00;47.40;;;;;;5012963;28;20186;-52
2023/12/23 11:57:54;;;;;;;0.80;0.20;;;7.00;47.50;;;;;;5013200;28;20269;-46
2023/12/23 12:00:20;;;;;;;0.80;0.30;;;6.90;47.60;;;;;;5011738;28;20185;-48
2023/12/23 12:02:45;;;;;;;0.80;0.30;;;6.80;47.60;;;;;;5021362;28;20182;-52
2023/12/23 12:05:12;;;;;;;0.80;0.30;;;6.80;47.50;;;;;;5028019;28;20561;-45
2023/12/23 12:07:38;;;;;;;0.90;0.35;;;6.70;47.50;;;;;;5032301;28;20340;-47
2023/12/23 12:10:04;;;;;;;0.80;0.30;;;6.70;47.60;;;;;;5026959;28;20684;-51
2023/12/23 12:12:30;;;;;;;1.98;1.55;;;6.70;47.60;;;;;;5021071;28;20188;-45
2023/12/23 12:14:56;;;;;;;0.80;0.40;;;6.60;47.50;;;;;;5012916;28;20181;-44
2023/12/23 12:17:24;;;;;;;0.80;0.20;;;6.60;47.60;;;;;;5012702;28;20241;-51
2023/12/23 12:19:50;;;;;;;0.80;0.20;;;6.60;47.70;;;;;;5012829;28;20175;-50
2023/12/23 12:22:15;;;;;;;0.80;0.30;;;6.50;47.90;;;;;;5014562;28;20591;-45
2023/12/23 12:24:42;;;;;;;0.80;0.30;;;6.50;48.00;;;;;;5013668;28;20783;-53
2023/12/23 12:27:08;;;;;;;0.80;0.20;;;6.50;48.00;;;;;;5012582;28;20213;-50
2023/12/23 12:29:34;;;;;;;0.80;0.43;;;6.50;48.00;;;;;;5012623;28;20269;-48
2023/12/23 12:31:59;;;;;;;0.80;0.30;;;6.50;48.20;;;;;;5012854;28;20253;-49
2023/12/23 12:34:27;;;;;;;0.90;0.47;;;6.50;48.30;;;;;;5012493;28;20410;-46
2023/12/23 12:36:54;;;;;;;0.80;0.30;;;6.40;48.30;;;;;;5012416;28;20249;-46
2023/12/23 12:39:20;;;;;;;0.80;0.30;;;6.40;48.40;;;;;;5012522;28;20185;-52
2023/12/23 12:41:50;;;;;;;0.80;0.28;;;6.40;48.30;;;;;;5031980;28;20260;-45
2023/12/23 12:44:17;;;;;;;0.82;0.30;;;6.40;48.50;;;;;;5032108;28;20181;-47
2023/12/23 12:46:44;;;;;;;0.80;0.20;;;6.40;48.60;;;;;;5023765;28;20571;-52
2023/12/23 12:49:11;;;;;;;0.80;0.30;;;6.40;48.80;;;;;;5031831;28;20227;-46
2023/12/23 12:51:37;;;;;;;0.80;0.20;;;6.40;49.10;;;;;;5031873;28;20178;-46
2023/12/23 12:54:05;;;;;;;0.90;0.50;;;6.40;49.00;;;;;;5032140;28;20177;-52